createdAt,value
2023-04-04T00:01:14.872Z,70.87
2023-04-04T00:03:43.420Z,71.03
2023-04-04T00:06:12.078Z,70.92
2023-04-04T00:08:40.623Z,70.99
2023-04-04T00:11:08.942Z,71.23
2023-04-04T00:13:38.835Z,71.19
2023-04-04T00:16:07.419Z,71.31
2023-04-04T00:18:36.225Z,71.43
2023-04-04T00:21:04.793Z,71.50
2023-04-04T00:23:33.164Z,71.54
2023-04-04T00:26:01.561Z,71.69
2023-04-04T00:28:29.996Z,71.63
2023-04-04T00:30:58.566Z,71.82
2023-04-04T00:33:27.330Z,71.94
2023-04-04T00:35:55.751Z,71.99
2023-04-04T00:38:24.192Z,72.04
2023-04-04T00:40:52.712Z,72.11
2023-04-04T00:43:21.161Z,72.25
2023-04-04T00:45:52.151Z,72.41
2023-04-04T00:48:21.416Z,72.55
2023-04-04T00:50:50.088Z,72.52
2023-04-04T00:53:18.799Z,72.61
2023-04-04T00:55:47.372Z,72.65
2023-04-04T00:58:16.276Z,72.79
2023-04-04T01:00:45.467Z,72.81
2023-04-04T01:03:14.261Z,72.96
2023-04-04T01:05:42.819Z,72.88
2023-04-04T01:08:11.900Z,73.07
2023-04-04T01:10:41.600Z,73.08
2023-04-04T01:13:11.034Z,73.02
2023-04-04T01:15:39.423Z,72.94
2023-04-04T01:18:11.568Z,72.90
2023-04-04T01:20:59.311Z,73.00
2023-04-04T01:24:01.440Z,72.65
2023-04-04T01:26:30.953Z,72.67
2023-04-04T01:29:00.055Z,72.63
2023-04-04T01:31:41.892Z,72.39
2023-04-04T01:34:21.583Z,72.37
2023-04-04T01:37:03.014Z,72.27
2023-04-04T01:39:43.326Z,72.21
2023-04-04T01:42:12.790Z,72.14
2023-04-04T01:44:41.646Z,71.85
2023-04-04T01:47:13.305Z,71.86
2023-04-04T01:49:42.236Z,71.51
2023-04-04T01:52:10.681Z,71.62
2023-04-04T01:54:38.991Z,71.63
2023-04-04T01:57:07.440Z,71.34
2023-04-04T01:59:36.417Z,71.40
2023-04-04T02:02:04.775Z,71.36
2023-04-04T02:04:33.176Z,71.43
2023-04-04T02:07:01.595Z,71.49
2023-04-04T02:09:29.994Z,71.50
2023-04-04T02:11:58.309Z,71.37
2023-04-04T02:14:26.621Z,71.49
2023-04-04T02:16:55.149Z,71.65
2023-04-04T02:19:24.769Z,71.73
2023-04-04T02:21:53.084Z,71.56
2023-04-04T02:24:21.386Z,71.65
2023-04-04T02:26:49.766Z,71.47
2023-04-04T02:29:18.226Z,71.32
2023-04-04T02:31:46.618Z,71.29
2023-04-04T02:34:14.992Z,71.06
2023-04-04T02:36:43.374Z,71.01
2023-04-04T02:39:11.735Z,71.14
2023-04-04T02:41:40.106Z,71.16
2023-04-04T02:44:09.855Z,70.96
2023-04-04T02:46:38.335Z,70.84
2023-04-04T02:49:06.646Z,71.01
2023-04-04T02:51:34.982Z,70.81
2023-04-04T02:54:04.157Z,70.93
2023-04-04T02:56:32.827Z,70.60
2023-04-04T02:59:01.254Z,70.37
2023-04-04T03:01:29.620Z,70.21
2023-04-04T03:03:58.068Z,70.34
2023-04-04T03:06:26.696Z,70.30
2023-04-04T03:08:55.062Z,70.43
2023-04-04T03:11:23.453Z,70.17
2023-04-04T03:13:52.371Z,70.49
2023-04-04T03:16:20.800Z,70.48
2023-04-04T03:18:49.579Z,70.29
2023-04-04T03:21:18.743Z,70.41
2023-04-04T03:23:47.181Z,70.26
2023-04-04T03:26:15.536Z,70.34
2023-04-04T03:28:43.994Z,70.32
2023-04-04T03:31:12.361Z,70.33
2023-04-04T03:33:43.019Z,70.39
2023-04-04T03:36:13.121Z,70.47
2023-04-04T03:38:41.701Z,70.54
2023-04-04T03:41:10.757Z,70.61
2023-04-04T03:43:39.206Z,70.53
2023-04-04T03:46:07.981Z,70.36
2023-04-04T03:48:37.347Z,70.66
2023-04-04T03:51:06.034Z,70.70
2023-04-04T03:53:36.565Z,70.72
2023-04-04T03:56:05.137Z,70.77
2023-04-04T03:58:36.399Z,71.04
2023-04-04T04:01:04.856Z,71.17
2023-04-04T04:03:33.291Z,71.20
2023-04-04T04:06:02.028Z,71.23
2023-04-04T04:08:30.349Z,71.40
2023-04-04T04:11:07.988Z,71.58
2023-04-04T04:13:37.850Z,71.44
2023-04-04T04:16:06.711Z,71.69
2023-04-04T04:18:35.203Z,71.79
2023-04-04T04:21:05.020Z,71.73
2023-04-04T04:23:33.337Z,71.84
2023-04-04T04:26:01.792Z,72.04
2023-04-04T04:28:33.902Z,72.24
2023-04-04T04:31:10.618Z,72.23
2023-04-04T04:33:39.029Z,72.36
2023-04-04T04:36:08.298Z,72.47
2023-04-04T04:38:36.774Z,72.55
2023-04-04T04:41:05.141Z,72.61
2023-04-04T04:43:33.522Z,72.85
2023-04-04T04:46:01.868Z,72.79
2023-04-04T04:48:30.377Z,72.92
2023-04-04T04:50:58.747Z,73.05
2023-04-04T04:53:27.153Z,73.23
2023-04-04T04:55:55.468Z,73.46
2023-04-04T04:58:25.457Z,73.30
2023-04-04T05:00:59.183Z,73.30
2023-04-04T05:03:27.901Z,73.41
2023-04-04T05:05:56.508Z,73.38
2023-04-04T05:08:24.873Z,73.21
2023-04-04T05:10:55.064Z,73.42
2023-04-04T05:13:23.832Z,73.47
2023-04-04T05:15:52.914Z,73.56
2023-04-04T05:18:21.414Z,73.50
2023-04-04T05:20:59.003Z,73.22
2023-04-04T05:23:27.794Z,73.20
2023-04-04T05:25:56.604Z,73.30
2023-04-04T05:28:24.897Z,73.35
2023-04-04T05:30:53.630Z,72.98
2023-04-04T05:33:23.338Z,72.95
2023-04-04T05:35:51.923Z,73.09
2023-04-04T05:38:20.379Z,72.95
2023-04-04T05:40:48.783Z,72.90
2023-04-04T05:43:17.259Z,73.01
2023-04-04T05:45:45.830Z,72.86
2023-04-04T05:48:15.466Z,72.83
2023-04-04T05:50:47.349Z,72.60
2023-04-04T05:53:17.170Z,72.50
2023-04-04T05:55:45.812Z,72.59
2023-04-04T05:58:14.136Z,72.17
2023-04-04T06:00:42.911Z,72.10
2023-04-04T06:03:11.716Z,72.24
2023-04-04T06:05:42.859Z,72.00
2023-04-04T06:08:11.209Z,71.73
2023-04-04T06:10:39.761Z,71.53
2023-04-04T06:13:08.330Z,71.35
2023-04-04T06:15:37.717Z,71.29
2023-04-04T06:18:06.428Z,71.29
2023-04-04T06:20:35.059Z,71.11
2023-04-04T06:23:06.606Z,71.13
2023-04-04T06:25:35.219Z,70.85
2023-04-04T06:28:05.756Z,70.57
2023-04-04T06:30:38.425Z,70.59
2023-04-04T06:33:07.161Z,70.43
2023-04-04T06:35:35.513Z,70.46
2023-04-04T06:38:05.542Z,70.77
2023-04-04T06:40:34.030Z,70.49
2023-04-04T06:43:02.645Z,70.26
2023-04-04T06:45:33.679Z,69.80
2023-04-04T06:48:03.659Z,69.07
2023-04-04T06:50:35.009Z,69.48
2023-04-04T06:53:03.730Z,69.03
2023-04-04T06:55:34.763Z,68.95
2023-04-04T06:58:03.169Z,68.68
2023-04-04T07:00:31.619Z,68.42
2023-04-04T07:03:01.157Z,68.25
2023-04-04T07:05:29.662Z,68.16
2023-04-04T07:07:58.077Z,68.24
2023-04-04T07:10:27.158Z,68.31
2023-04-04T07:12:55.669Z,67.94
2023-04-04T07:15:24.011Z,67.90
2023-04-04T07:17:52.757Z,67.54
2023-04-04T07:20:21.277Z,67.64
2023-04-04T07:22:49.718Z,67.84
2023-04-04T07:25:18.162Z,67.68
2023-04-04T07:27:46.908Z,67.51
2023-04-04T07:30:15.742Z,66.86
2023-04-04T07:32:44.597Z,66.23
2023-04-04T07:35:12.880Z,66.03
2023-04-04T07:37:41.460Z,66.24
2023-04-04T07:40:10.405Z,66.25
2023-04-04T07:42:45.520Z,66.58
2023-04-04T07:45:15.090Z,66.53
2023-04-04T07:47:45.289Z,66.58
2023-04-04T07:50:14.478Z,65.71
2023-04-04T07:52:52.262Z,64.79
2023-04-04T07:55:21.237Z,64.40
2023-04-04T07:57:50.806Z,64.33
2023-04-04T08:00:22.004Z,64.25
2023-04-04T08:02:55.618Z,64.23
2023-04-04T08:05:24.170Z,64.43
2023-04-04T08:07:52.696Z,64.17
2023-04-04T08:10:21.994Z,64.01
2023-04-04T08:12:50.396Z,63.98
2023-04-04T08:15:18.762Z,63.81
2023-04-04T08:17:47.497Z,64.04
2023-04-04T08:20:16.333Z,63.97
2023-04-04T08:22:44.662Z,63.48
2023-04-04T08:25:13.530Z,63.67
2023-04-04T08:27:44.103Z,63.77
2023-04-04T08:30:14.376Z,63.70
2023-04-04T08:32:45.864Z,63.33
2023-04-04T08:35:14.947Z,62.99
2023-04-04T08:37:46.575Z,62.87
2023-04-04T08:40:15.959Z,62.88
2023-04-04T08:42:46.147Z,62.78
2023-04-04T08:45:19.427Z,62.73
2023-04-04T08:47:52.034Z,62.81
2023-04-04T08:50:21.552Z,62.76
2023-04-04T08:52:49.949Z,62.56
2023-04-04T08:55:18.541Z,62.34
2023-04-04T08:57:47.196Z,62.25
2023-04-04T09:00:17.901Z,62.62
2023-04-04T09:03:10.453Z,62.38
2023-04-04T09:05:39.192Z,61.83
2023-04-04T09:08:07.938Z,61.68
2023-04-04T09:10:38.016Z,62.07
2023-04-04T09:13:15.530Z,61.77
2023-04-04T09:15:54.259Z,61.23
2023-04-04T09:18:24.223Z,61.24
2023-04-04T09:20:53.502Z,61.40
2023-04-04T09:23:23.595Z,60.89
2023-04-04T09:28:28.657Z,60.60
2023-04-04T09:30:57.092Z,60.30
2023-04-04T09:33:25.893Z,60.44
2023-04-04T09:36:00.180Z,60.20
2023-04-04T09:38:31.160Z,59.76
2023-04-04T09:40:59.782Z,59.94
2023-04-04T09:43:30.836Z,60.33
2023-04-04T09:46:00.468Z,60.55
2023-04-04T09:48:34.669Z,60.24
2023-04-04T09:51:07.892Z,59.68
2023-04-04T09:53:38.499Z,59.75
2023-04-04T09:56:07.791Z,59.79
2023-04-04T09:58:37.267Z,59.57
2023-04-04T10:01:12.897Z,59.44
2023-04-04T10:03:41.362Z,59.41
2023-04-04T10:06:12.841Z,59.76
2023-04-04T10:08:43.755Z,59.52
2023-04-04T10:11:12.691Z,59.42
2023-04-04T10:13:43.937Z,59.40
2023-04-04T10:16:13.252Z,58.78
2023-04-04T10:18:41.746Z,58.43
2023-04-04T10:23:42.640Z,57.74
2023-04-04T10:26:12.689Z,57.89
2023-04-04T10:28:43.907Z,58.04
2023-04-04T10:31:23.720Z,57.54
2023-04-04T10:34:25.714Z,56.94
2023-04-04T10:37:07.073Z,57.84
2023-04-04T10:40:07.903Z,58.19
2023-04-04T10:42:43.325Z,58.75
2023-04-04T10:45:20.622Z,58.91
2023-04-04T10:47:50.816Z,58.61
2023-04-04T10:50:20.933Z,58.61
2023-04-04T10:52:50.434Z,58.01
2023-04-04T10:55:19.705Z,57.86
2023-04-04T10:57:52.642Z,56.88
2023-04-04T11:00:26.200Z,56.70
2023-04-04T11:02:57.781Z,56.97
2023-04-04T11:05:47.210Z,56.67
2023-04-04T11:08:27.967Z,56.05
2023-04-04T11:10:57.505Z,56.35
2023-04-04T11:13:29.354Z,56.08
2023-04-04T11:16:14.007Z,55.73
2023-04-04T11:18:45.958Z,55.76
2023-04-04T11:21:23.937Z,56.18
2023-04-04T11:23:52.294Z,56.16
2023-04-04T11:26:27.708Z,56.71
2023-04-04T11:29:01.519Z,57.01
2023-04-04T11:31:39.992Z,57.20
2023-04-04T11:34:13.968Z,56.61
2023-04-04T11:36:43.914Z,56.45
2023-04-04T11:39:19.837Z,56.11
2023-04-04T11:42:13.711Z,56.06
2023-04-04T11:45:03.017Z,55.82
2023-04-04T11:47:31.658Z,56.54
2023-04-04T11:50:02.367Z,56.93
2023-04-04T11:52:35.283Z,57.30
2023-04-04T11:55:15.507Z,57.36
2023-04-04T11:57:44.067Z,57.32
2023-04-04T12:00:29.204Z,57.39
2023-04-04T12:03:00.076Z,56.88
2023-04-04T12:05:30.824Z,57.04
2023-04-04T12:08:04.407Z,57.35
2023-04-04T12:10:40.516Z,57.37
2023-04-04T12:13:10.101Z,57.62
2023-04-04T12:15:38.735Z,57.54
2023-04-04T12:18:09.031Z,57.79
2023-04-04T12:20:46.706Z,57.89
2023-04-04T12:23:17.461Z,57.65
2023-04-04T12:25:49.852Z,57.69
2023-04-04T12:28:18.384Z,57.78
2023-04-04T12:30:47.677Z,58.04
2023-04-04T12:33:16.961Z,58.06
2023-04-04T12:35:53.511Z,57.88
2023-04-04T12:38:22.002Z,57.80
2023-04-04T12:40:51.572Z,57.89
2023-04-04T12:43:22.051Z,58.19
2023-04-04T12:45:56.974Z,58.47
2023-04-04T12:48:29.666Z,58.15
2023-04-04T12:51:00.686Z,58.21
2023-04-04T12:53:30.565Z,58.19
2023-04-04T12:56:04.863Z,57.89
2023-04-04T12:58:35.990Z,57.70
2023-04-04T13:01:07.212Z,57.62
2023-04-04T13:03:37.822Z,57.48
2023-04-04T13:06:33.092Z,57.87
2023-04-04T13:09:01.639Z,57.88
2023-04-04T13:11:56.420Z,57.77
2023-04-04T13:14:24.790Z,57.77
2023-04-04T13:17:06.491Z,57.83
2023-04-04T13:19:35.027Z,58.36
2023-04-04T13:22:03.758Z,58.40
2023-04-04T13:24:32.535Z,58.32
2023-04-04T13:27:01.339Z,58.16
2023-04-04T13:29:30.230Z,58.26
2023-04-04T13:31:58.666Z,57.95
2023-04-04T13:34:27.384Z,58.00
2023-04-04T13:36:56.484Z,57.58
2023-04-04T13:39:25.197Z,57.40
2023-04-04T13:41:53.964Z,57.22
2023-04-04T13:44:22.340Z,56.89
2023-04-04T13:46:50.702Z,57.18
2023-04-04T13:49:19.346Z,57.27
2023-04-04T13:51:48.088Z,57.05
2023-04-04T13:54:16.396Z,57.12
2023-04-04T13:56:46.839Z,56.86
2023-04-04T13:59:15.553Z,56.88
2023-04-04T14:01:43.963Z,56.96
2023-04-04T14:04:22.681Z,57.12
2023-04-04T14:06:52.556Z,57.09
2023-04-04T14:09:20.912Z,57.10
2023-04-04T14:11:49.470Z,57.34
2023-04-04T14:14:17.842Z,57.26
2023-04-04T14:16:46.258Z,57.02
2023-04-04T14:19:14.518Z,56.78
2023-04-04T14:21:42.872Z,56.76
2023-04-04T14:24:11.688Z,57.01
2023-04-04T14:26:40.149Z,57.10
2023-04-04T14:29:08.569Z,56.77
2023-04-04T14:31:37.047Z,56.72
2023-04-04T14:34:06.123Z,56.63
2023-04-04T14:36:34.797Z,56.67
2023-04-04T14:39:03.552Z,56.51
2023-04-04T14:41:32.103Z,56.49
2023-04-04T14:44:00.894Z,56.81
2023-04-04T14:46:29.308Z,57.02
2023-04-04T14:48:58.200Z,56.72
2023-04-04T14:51:27.270Z,56.62
2023-04-04T14:53:55.750Z,57.17
2023-04-04T14:56:24.261Z,57.36
2023-04-04T14:58:53.028Z,57.52
2023-04-04T15:01:22.860Z,57.68
2023-04-04T15:03:51.391Z,57.78
2023-04-04T15:06:21.451Z,57.93
2023-04-04T15:08:49.786Z,58.10
2023-04-04T15:11:18.174Z,57.99
2023-04-04T15:13:46.501Z,58.25
2023-04-04T15:16:15.041Z,58.37
2023-04-04T15:18:43.455Z,58.39
2023-04-04T15:21:11.895Z,58.37
2023-04-04T15:23:40.665Z,58.25
2023-04-04T15:26:09.125Z,58.26
2023-04-04T15:28:37.496Z,58.32
2023-04-04T15:31:06.262Z,58.27
2023-04-04T15:33:34.613Z,58.32
2023-04-04T15:36:03.003Z,58.22
2023-04-04T15:38:31.632Z,58.09
2023-04-04T15:40:59.980Z,58.27
2023-04-04T15:43:28.549Z,57.96
2023-04-04T15:45:56.951Z,58.01
2023-04-04T15:48:25.392Z,58.12
2023-04-04T15:51:02.543Z,58.03
2023-04-04T15:53:31.480Z,58.17
2023-04-04T15:56:02.093Z,58.05
2023-04-04T15:58:30.460Z,57.92
2023-04-04T16:00:58.868Z,57.03
2023-04-04T16:03:27.310Z,56.44
2023-04-04T16:05:55.846Z,55.80
2023-04-04T16:08:24.178Z,55.97
2023-04-04T16:10:52.577Z,55.73
2023-04-04T16:13:20.965Z,55.61
2023-04-04T16:15:49.445Z,55.36
2023-04-04T16:18:17.840Z,55.31
2023-04-04T16:20:46.285Z,55.20
2023-04-04T16:23:14.629Z,55.49
2023-04-04T16:25:43.389Z,55.71
2023-04-04T16:28:11.729Z,55.73
2023-04-04T16:30:40.275Z,55.64
2023-04-04T16:33:08.835Z,55.99
2023-04-04T16:35:38.403Z,56.26
2023-04-04T16:38:07.037Z,56.46
2023-04-04T16:40:35.804Z,56.16
2023-04-04T16:43:04.154Z,56.18
2023-04-04T16:45:32.976Z,55.78
2023-04-04T16:48:01.704Z,55.46
2023-04-04T16:50:30.422Z,55.12
2023-04-04T16:52:59.521Z,54.31
2023-04-04T16:55:29.068Z,53.61
2023-04-04T16:57:57.406Z,52.82
2023-04-04T17:00:25.793Z,53.07
2023-04-04T17:02:54.596Z,53.20
2023-04-04T17:05:23.042Z,53.05
2023-04-04T17:07:51.827Z,52.84
2023-04-04T17:10:23.480Z,53.02
2023-04-04T17:12:52.375Z,53.27
2023-04-04T17:15:20.696Z,53.32
2023-04-04T17:17:49.465Z,53.43
2023-04-04T17:20:18.345Z,53.79
2023-04-04T17:22:47.548Z,54.00
2023-04-04T17:25:16.104Z,54.07
2023-04-04T17:27:44.420Z,54.33
2023-04-04T17:30:13.505Z,54.60
2023-04-04T17:32:42.190Z,54.72
2023-04-04T17:35:10.577Z,55.09
2023-04-04T17:37:39.078Z,55.30
2023-04-04T17:40:08.750Z,55.55
2023-04-04T17:42:37.689Z,55.60
2023-04-04T17:45:08.361Z,55.83
2023-04-04T17:47:36.760Z,56.02
2023-04-04T17:50:05.764Z,56.40
2023-04-04T17:52:34.148Z,56.40
2023-04-04T17:55:03.552Z,56.83
2023-04-04T17:57:32.370Z,56.96
2023-04-04T18:00:00.849Z,57.37
2023-04-04T18:02:29.253Z,57.47
2023-04-04T18:04:58.592Z,57.86
2023-04-04T18:07:27.185Z,57.84
2023-04-04T18:09:55.908Z,58.18
2023-04-04T18:12:27.079Z,58.30
2023-04-04T18:14:55.926Z,58.62
2023-04-04T18:17:24.916Z,58.86
2023-04-04T18:19:54.761Z,59.01
2023-04-04T18:22:23.509Z,59.01
2023-04-04T18:24:51.939Z,59.19
2023-04-04T18:27:20.494Z,59.10
2023-04-04T18:29:48.884Z,59.57
2023-04-04T18:32:18.299Z,59.80
2023-04-04T18:34:46.696Z,60.03
2023-04-04T18:37:15.476Z,60.08
2023-04-04T18:39:43.845Z,60.18
2023-04-04T18:42:12.205Z,60.23
2023-04-04T18:44:40.760Z,60.26
2023-04-04T18:47:09.290Z,60.32
2023-04-04T18:49:38.275Z,60.58
2023-04-04T18:52:06.685Z,60.75
2023-04-04T18:54:35.032Z,60.62
2023-04-04T18:57:03.378Z,60.82
2023-04-04T18:59:31.937Z,61.00
2023-04-04T19:02:00.966Z,61.33
2023-04-04T19:04:30.749Z,61.34
2023-04-04T19:07:04.162Z,61.60
2023-04-04T19:09:33.890Z,61.72
2023-04-04T19:12:03.449Z,62.03
2023-04-04T19:14:32.010Z,62.19
2023-04-04T19:17:00.366Z,61.94
2023-04-04T19:19:29.149Z,62.12
2023-04-04T19:21:57.677Z,62.22
2023-04-04T19:24:26.123Z,62.45
2023-04-04T19:26:54.898Z,62.52
2023-04-04T19:29:23.285Z,62.81
2023-04-04T19:31:54.267Z,62.56
2023-04-04T19:34:22.592Z,62.79
2023-04-04T19:36:51.585Z,62.83
2023-04-04T19:39:20.958Z,63.02
2023-04-04T19:41:49.672Z,63.21
2023-04-04T19:44:21.293Z,63.35
2023-04-04T19:46:50.184Z,63.44
2023-04-04T19:49:19.266Z,63.49
2023-04-04T19:51:54.127Z,63.73
2023-04-04T19:54:27.217Z,63.85
2023-04-04T19:57:08.710Z,64.19
2023-04-04T20:00:10.931Z,64.38
2023-04-04T20:02:53.688Z,64.33
2023-04-04T20:05:32.286Z,64.68
2023-04-04T20:08:01.408Z,64.67
2023-04-04T20:10:42.031Z,64.78
2023-04-04T20:13:10.873Z,64.84
2023-04-04T20:15:45.820Z,65.13
2023-04-04T20:18:24.146Z,65.04
2023-04-04T20:21:13.942Z,65.18
2023-04-04T20:23:57.682Z,65.28
2023-04-04T20:26:38.263Z,65.41
2023-04-04T20:29:17.418Z,65.37
2023-04-04T20:32:10.484Z,65.52
2023-04-04T20:34:47.127Z,65.64
2023-04-04T20:37:26.266Z,65.76
2023-04-04T20:40:09.949Z,65.69
2023-04-04T20:42:40.775Z,65.96
2023-04-04T20:45:09.193Z,65.81
2023-04-04T20:47:48.896Z,65.97
2023-04-04T20:50:17.600Z,66.25
2023-04-04T20:53:00.672Z,65.99
2023-04-04T20:55:35.466Z,66.34
2023-04-04T20:58:23.857Z,66.00
2023-04-04T21:00:52.385Z,66.46
2023-04-04T21:03:37.658Z,66.50
2023-04-04T21:06:15.284Z,66.93
2023-04-04T21:08:47.942Z,67.04
2023-04-04T21:11:30.238Z,67.27
2023-04-04T21:13:58.822Z,67.17
2023-04-04T21:16:27.964Z,67.59
2023-04-04T21:19:01.530Z,67.65
2023-04-04T21:21:30.569Z,67.72
2023-04-04T21:24:00.224Z,67.93
2023-04-04T21:26:33.589Z,67.98
2023-04-04T21:29:20.673Z,68.02
2023-04-04T21:31:54.801Z,67.90
2023-04-04T21:34:26.308Z,68.05
2023-04-04T21:37:00.326Z,68.17
2023-04-04T21:39:30.424Z,68.34
2023-04-04T21:42:04.104Z,68.47
2023-04-04T21:44:33.821Z,68.40
2023-04-04T21:47:02.106Z,68.46
2023-04-04T21:49:30.406Z,68.67
2023-04-04T21:51:58.916Z,68.82
2023-04-04T21:54:27.309Z,68.86
2023-04-04T21:56:55.759Z,69.16
2023-04-04T21:59:24.190Z,69.07
2023-04-04T22:01:52.632Z,69.11
2023-04-04T22:04:21.044Z,69.02
2023-04-04T22:06:49.373Z,69.20
2023-04-04T22:09:19.261Z,69.58
2023-04-04T22:11:47.652Z,69.57
2023-04-04T22:14:17.490Z,69.99
2023-04-04T22:16:46.402Z,69.95
2023-04-04T22:19:14.836Z,70.16
2023-04-04T22:21:47.560Z,70.68
2023-04-04T22:24:18.283Z,71.00
2023-04-04T22:26:47.386Z,71.18
2023-04-04T22:29:15.978Z,71.46
2023-04-04T22:31:44.553Z,71.64
2023-04-04T22:34:14.915Z,71.72
2023-04-04T22:36:44.026Z,71.78
2023-04-04T22:39:16.106Z,72.11
2023-04-04T22:41:44.927Z,72.21
2023-04-04T22:44:13.229Z,72.18
2023-04-04T22:46:41.720Z,72.40
2023-04-04T22:49:10.361Z,72.57
2023-04-04T22:51:45.644Z,72.76
2023-04-04T22:54:16.618Z,72.60
2023-04-04T22:56:45.820Z,72.80
2023-04-04T22:59:14.447Z,73.01
2023-04-04T23:01:43.097Z,73.00
2023-04-04T23:04:11.686Z,73.31
2023-04-04T23:06:40.131Z,73.41
2023-04-04T23:09:08.843Z,73.49
2023-04-04T23:11:40.624Z,73.62
2023-04-04T23:14:09.592Z,73.71
2023-04-04T23:16:38.553Z,73.96
2023-04-04T23:19:07.652Z,73.89
2023-04-04T23:21:36.851Z,74.09
2023-04-04T23:24:08.337Z,74.12
2023-04-04T23:26:36.641Z,74.16
2023-04-04T23:29:05.775Z,74.15
2023-04-04T23:31:35.456Z,74.42
2023-04-04T23:34:03.834Z,74.42
2023-04-04T23:36:32.401Z,74.68
2023-04-04T23:39:00.877Z,74.61
2023-04-04T23:41:29.265Z,75.03
2023-04-04T23:43:57.914Z,74.95
2023-04-04T23:46:26.382Z,75.14
2023-04-04T23:48:55.077Z,75.17
2023-04-04T23:51:25.683Z,75.28
2023-04-04T23:53:54.057Z,75.31
2023-04-04T23:56:22.640Z,75.45
2023-04-04T23:58:51.236Z,75.44
